Time;durP1;ratioP1;P1;durP2;ratioP2;P2;SDS_P1;SDS_P2;PMS_P1;PMS_P2;Temp;Humidity;BMP_temperature;BMP_pressure;BME280_temperature;BME280_humidity;BME280_pressure;Samples;Min_cycle;Max_cycle;Signal;HPM_P1;HPM_P2
2023/01/15 00:02:05;;;;;;;;;;;19.50;46.20;;;;;;5062770;28;19962;-65
2023/01/15 00:04:33;;;;;;;;;;;19.50;46.70;;;;;;5059613;28;19920;-65
2023/01/15 00:07:00;;;;;;;;;;;19.50;46.10;;;;;;5056427;28;19959;-64
2023/01/15 00:09:26;;;;;;;;;;;19.50;46.10;;;;;;5063721;28;19920;-64
2023/01/15 00:11:53;;;;;;;;;;;19.50;46.10;;;;;;5064892;28;19924;-64
2023/01/15 00:14:20;;;;;;;;;;;19.50;46.10;;;;;;5058072;28;19924;-65
2023/01/15 00:16:50;;;;;;;;;;;19.50;46.10;;;;;;5058917;28;19920;-64
2023/01/15 00:19:17;;;;;;;;;;;19.50;46.20;;;;;;5079143;28;19920;-65
2023/01/15 00:21:45;;;;;;;;;;;19.50;46.10;;;;;;5063026;28;19926;-66
2023/01/15 00:29:45;;;;;;;;;;;19.50;46.10;;;;;;5062379;28;19932;-63
2023/01/15 00:32:12;;;;;;;;;;;19.50;46.10;;;;;;5060703;28;19920;-64
2023/01/15 00:34:39;;;;;;;;;;;19.50;46.10;;;;;;5057757;28;19962;-66
2023/01/15 00:37:07;;;;;;;;;;;19.50;46.10;;;;;;5061351;28;19924;-66
2023/01/15 00:39:34;;;;;;;;;;;19.50;46.10;;;;;;5064057;28;19966;-64
2023/01/15 00:42:01;;;;;;;;;;;19.50;46.10;;;;;;5041750;28;19929;-65
2023/01/15 00:44:27;;;;;;;;;;;19.50;46.10;;;;;;5081339;28;19927;-65
2023/01/15 00:46:54;;;;;;;;;;;19.50;46.10;;;;;;5081490;28;20377;-64
2023/01/15 00:49:21;;;;;;;;;;;19.50;46.10;;;;;;5059247;28;19928;-64
2023/01/15 00:51:48;;;;;;;;;;;19.50;46.10;;;;;;5058589;28;19920;-67
2023/01/15 00:54:17;;;;;;;;;;;19.50;46.10;;;;;;5057764;28;19931;-65
2023/01/15 00:56:43;;;;;;;;;;;19.50;46.10;;;;;;5061086;28;19920;-64
2023/01/15 00:59:10;;;;;;;;;;;19.50;46.10;;;;;;5080598;28;20009;-64
2023/01/15 01:01:37;;;;;;;;;;;19.50;46.10;;;;;;5061776;28;19921;-65
2023/01/15 01:04:04;;;;;;;;;;;19.50;46.10;;;;;;5060790;28;20358;-62
2023/01/15 01:06:30;;;;;;;;;;;19.50;46.10;;;;;;5078657;28;19937;-64
2023/01/15 01:08:57;;;;;;;;;;;19.50;46.10;;;;;;5061870;28;19920;-65
2023/01/15 01:11:27;;;;;;;;;;;19.50;46.10;;;;;;5055836;28;19928;-65
2023/01/15 01:13:54;;;;;;;;;;;19.50;46.10;;;;;;5062597;28;19924;-63
2023/01/15 01:16:21;;;;;;;;;;;19.50;46.10;;;;;;5061019;28;19924;-65
2023/01/15 01:18:48;;;;;;;;;;;19.50;46.10;;;;;;5078489;28;19921;-65
2023/01/15 01:21:14;;;;;;;;;;;19.50;46.00;;;;;;5058260;28;19927;-65
2023/01/15 01:23:41;;;;;;;;;;;19.50;46.10;;;;;;5064021;28;19920;-64
2023/01/15 01:26:08;;;;;;;;;;;19.50;46.00;;;;;;5061998;28;19924;-63
2023/01/15 01:28:36;;;;;;;;;;;19.50;46.00;;;;;;5057137;28;20039;-64
2023/01/15 01:31:04;;;;;;;;;;;19.50;46.00;;;;;;5059482;28;19927;-64
2023/01/15 01:33:31;;;;;;;;;;;19.50;46.00;;;;;;5083128;28;19924;-64
2023/01/15 01:35:58;;;;;;;;;;;19.50;46.00;;;;;;5061292;28;19920;-64
2023/01/15 01:38:25;;;;;;;;;;;19.50;46.60;;;;;;5058601;28;19928;-66
2023/01/15 01:40:51;;;;;;;;;;;19.50;46.00;;;;;;5060857;28;19920;-67
2023/01/15 01:43:19;;;;;;;;;;;19.50;46.10;;;;;;5067247;28;19920;-64
2023/01/15 01:45:47;;;;;;;;;;;19.50;46.00;;;;;;5063410;28;19920;-64
2023/01/15 01:48:14;;;;;;;;;;;19.50;46.00;;;;;;5083290;28;19923;-64
2023/01/15 01:50:41;;;;;;;;;;;19.50;46.00;;;;;;5066608;28;20319;-65
2023/01/15 01:53:08;;;;;;;;;;;19.50;46.00;;;;;;5065752;28;19991;-64
2023/01/15 01:55:35;;;;;;;;;;;19.50;46.00;;;;;;5063362;28;19977;-64
2023/01/15 01:58:02;;;;;;;;;;;19.50;46.00;;;;;;5081799;28;19920;-64
2023/01/15 02:00:29;;;;;;;;;;;19.50;46.00;;;;;;5062308;28;19920;-66
2023/01/15 02:02:57;;;;;;;;;;;19.50;46.00;;;;;;5064915;28;19920;-66
2023/01/15 02:05:27;;;;;;;;;;;19.50;46.00;;;;;;5062148;28;19948;-65
2023/01/15 02:07:53;;;;;;;;;;;19.50;46.00;;;;;;5064921;28;19931;-65
2023/01/15 02:10:20;;;;;;;;;;;19.50;46.00;;;;;;5084009;28;19928;-64
2023/01/15 02:12:49;;;;;;;;;;;19.50;46.00;;;;;;5061555;28;19920;-64
2023/01/15 02:15:18;;;;;;;;;;;19.50;46.00;;;;;;5062698;28;19928;-65
2023/01/15 02:17:46;;;;;;;;;;;19.50;46.00;;;;;;5061728;28;20007;-64
2023/01/15 02:20:18;;;;;;;;;;;19.50;46.00;;;;;;5064212;28;20006;-65
2023/01/15 02:22:49;;;;;;;;;;;19.50;46.00;;;;;;5082071;28;20320;-65
2023/01/15 02:25:18;;;;;;;;;;;19.50;46.00;;;;;;5084606;28;20263;-65
2023/01/15 02:27:47;;;;;;;;;;;19.50;46.50;;;;;;5066486;28;19920;-64
2023/01/15 02:30:15;;;;;;;;;;;19.50;46.00;;;;;;5060312;28;19920;-64
2023/01/15 02:32:44;;;;;;;;;;;19.50;46.00;;;;;;5062664;28;19973;-63
2023/01/15 02:35:12;;;;;;;;;;;19.50;46.00;;;;;;5060779;28;19920;-65
2023/01/15 02:37:39;;;;;;;;;;;19.50;46.00;;;;;;5066264;28;19932;-66
2023/01/15 02:40:07;;;;;;;;;;;19.50;46.00;;;;;;5057901;28;19924;-66
2023/01/15 02:42:34;;;;;;;;;;;19.50;45.90;;;;;;5083607;28;20014;-63
2023/01/15 02:45:02;;;;;;;;;;;19.50;46.00;;;;;;5064011;28;19924;-64
2023/01/15 02:47:30;;;;;;;;;;;19.50;46.00;;;;;;5080095;28;19920;-65
2023/01/15 02:49:57;;;;;;;;;;;19.50;45.90;;;;;;5062028;28;19927;-64
2023/01/15 02:52:24;;;;;;;;;;;19.50;45.90;;;;;;5061273;28;19974;-64
2023/01/15 02:54:53;;;;;;;;;;;19.50;45.90;;;;;;5082870;28;20195;-64
2023/01/15 02:57:19;;;;;;;;;;;19.50;46.00;;;;;;5081286;28;19932;-64
2023/01/15 02:59:48;;;;;;;;;;;19.50;45.90;;;;;;5060449;28;19927;-63
2023/01/15 03:02:19;;;;;;;;;;;19.50;45.90;;;;;;5063585;28;19966;-64
2023/01/15 03:04:47;;;;;;;;;;;19.50;45.90;;;;;;5051315;28;20015;-65
2023/01/15 03:07:15;;;;;;;;;;;19.50;45.90;;;;;;5062117;28;19920;-64
2023/01/15 03:09:41;;;;;;;;;;;19.50;45.90;;;;;;5083307;28;19932;-64
2023/01/15 03:12:12;;;;;;;;;;;19.50;45.90;;;;;;5063871;28;19921;-64
2023/01/15 03:14:40;;;;;;;;;;;19.50;45.90;;;;;;5063900;28;19970;-63
2023/01/15 03:17:13;;;;;;;;;;;19.50;45.90;;;;;;5060995;28;19925;-63
2023/01/15 03:19:43;;;;;;;;;;;19.50;45.90;;;;;;5062878;28;19964;-63
2023/01/15 03:22:11;;;;;;;;;;;19.50;45.90;;;;;;5062115;28;19920;-63
2023/01/15 03:24:39;;;;;;;;;;;19.50;45.90;;;;;;5065104;28;19920;-64
2023/01/15 03:27:05;;;;;;;;;;;19.50;45.90;;;;;;5059675;28;19924;-63
2023/01/15 03:29:33;;;;;;;;;;;19.50;45.80;;;;;;5063432;28;19932;-63
2023/01/15 03:32:00;;;;;;;;;;;19.50;45.80;;;;;;5062905;28;19955;-64
2023/01/15 03:34:26;;;;;;;;;;;19.50;45.90;;;;;;5065004;28;20319;-64
2023/01/15 03:36:54;;;;;;;;;;;19.50;45.80;;;;;;5063766;28;19998;-64
2023/01/15 03:39:21;;;;;;;;;;;19.50;45.90;;;;;;5058816;28;19920;-64
2023/01/15 03:41:50;;;;;;;;;;;19.50;45.80;;;;;;5065124;28;19932;-64
2023/01/15 03:44:20;;;;;;;;;;;19.50;45.80;;;;;;5082676;28;20316;-64
2023/01/15 03:46:50;;;;;;;;;;;19.50;45.80;;;;;;5059778;28;19920;-64
2023/01/15 03:49:19;;;;;;;;;;;19.50;45.80;;;;;;5062575;28;19969;-64
2023/01/15 03:51:48;;;;;;;;;;;19.50;45.80;;;;;;5083482;28;19966;-65
2023/01/15 03:54:17;;;;;;;;;;;19.50;45.80;;;;;;5078483;28;19944;-64
2023/01/15 03:56:47;;;;;;;;;;;19.50;45.80;;;;;;5063332;28;19920;-64
2023/01/15 03:59:15;;;;;;;;;;;19.50;45.80;;;;;;5063018;28;19971;-64
2023/01/15 04:01:42;;;;;;;;;;;19.50;45.80;;;;;;5061373;28;19963;-65
2023/01/15 04:04:09;;;;;;;;;;;19.50;45.80;;;;;;5064226;28;19920;-65
2023/01/15 04:06:36;;;;;;;;;;;19.50;45.80;;;;;;5065107;28;19920;-64
2023/01/15 04:09:03;;;;;;;;;;;19.50;45.80;;;;;;5064104;28;19997;-63
2023/01/15 04:11:32;;;;;;;;;;;19.50;45.80;;;;;;5072944;28;19970;-65
2023/01/15 04:13:58;;;;;;;;;;;19.50;45.80;;;;;;5062621;28;19921;-64
2023/01/15 04:16:26;;;;;;;;;;;19.50;45.80;;;;;;5064443;28;19928;-64
2023/01/15 04:18:52;;;;;;;;;;;19.50;45.80;;;;;;5074331;28;20259;-64
2023/01/15 04:21:19;;;;;;;;;;;19.50;45.80;;;;;;5080393;28;19920;-64
2023/01/15 04:23:46;;;;;;;;;;;19.50;45.80;;;;;;5062131;28;19943;-64
2023/01/15 04:26:13;;;;;;;;;;;19.50;45.80;;;;;;5062311;28;19921;-63
2023/01/15 04:28:41;;;;;;;;;;;19.50;45.80;;;;;;5081296;28;20290;-63
2023/01/15 04:31:08;;;;;;;;;;;19.50;45.70;;;;;;5059817;28;19920;-63
2023/01/15 04:33:35;;;;;;;;;;;19.50;45.70;;;;;;5080818;28;19927;-65
2023/01/15 04:36:02;;;;;;;;;;;19.50;45.70;;;;;;5064201;28;19931;-63
2023/01/15 04:38:29;;;;;;;;;;;19.50;45.80;;;;;;5061436;28;19935;-62
2023/01/15 04:46:25;;;;;;;;;;;19.50;45.70;;;;;;5061559;28;19920;-64
2023/01/15 04:48:52;;;;;;;;;;;19.50;45.70;;;;;;5077712;28;20046;-65
2023/01/15 04:51:19;;;;;;;;;;;19.50;45.70;;;;;;5061983;28;19924;-63
2023/01/15 04:53:46;;;;;;;;;;;19.50;45.70;;;;;;5061697;28;20325;-64
2023/01/15 04:56:12;;;;;;;;;;;19.50;45.70;;;;;;5062583;28;19920;-64
2023/01/15 04:58:40;;;;;;;;;;;19.50;45.70;;;;;;5078401;28;19974;-62
2023/01/15 05:01:10;;;;;;;;;;;19.50;45.70;;;;;;5055646;28;20050;-64
2023/01/15 05:03:37;;;;;;;;;;;19.50;45.70;;;;;;5060092;28;19921;-65
2023/01/15 05:06:03;;;;;;;;;;;19.50;45.70;;;;;;5078929;28;20332;-63
2023/01/15 05:08:30;;;;;;;;;;;19.50;45.70;;;;;;5060290;28;19940;-67
2023/01/15 05:11:00;;;;;;;;;;;19.50;45.70;;;;;;5062318;28;19920;-64
2023/01/15 05:13:28;;;;;;;;;;;19.50;45.60;;;;;;5062919;28;19924;-63
2023/01/15 05:15:57;;;;;;;;;;;19.50;45.60;;;;;;5061368;28;19920;-62
2023/01/15 05:18:24;;;;;;;;;;;19.50;45.60;;;;;;5056478;28;20021;-64
2023/01/15 05:20:50;;;;;;;;;;;19.50;45.70;;;;;;5081284;28;19978;-63
2023/01/15 05:23:17;;;;;;;;;;;19.50;46.20;;;;;;5061503;28;19921;-65
2023/01/15 05:25:44;;;;;;;;;;;19.50;45.60;;;;;;5061407;28;19924;-63
2023/01/15 05:28:11;;;;;;;;;;;19.40;45.50;;;;;;5062257;28;19925;-64
2023/01/15 05:30:37;;;;;;;;;;;19.50;45.60;;;;;;5065913;28;19956;-64
2023/01/15 05:33:06;;;;;;;;;;;19.50;45.60;;;;;;5057280;28;19947;-64
2023/01/15 05:35:32;;;;;;;;;;;19.50;45.60;;;;;;5064792;28;19924;-64
2023/01/15 05:37:59;;;;;;;;;;;19.50;45.60;;;;;;5077746;28;19920;-65
2023/01/15 05:40:26;;;;;;;;;;;19.50;45.60;;;;;;5060596;28;19959;-65
2023/01/15 05:42:53;;;;;;;;;;;19.50;45.60;;;;;;5062008;28;19927;-63
2023/01/15 05:45:20;;;;;;;;;;;19.50;45.60;;;;;;5061299;28;19985;-64
2023/01/15 05:47:46;;;;;;;;;;;19.50;45.50;;;;;;5079734;28;19966;-65
2023/01/15 05:50:15;;;;;;;;;;;19.50;45.60;;;;;;5058799;28;19976;-63
2023/01/15 05:52:41;;;;;;;;;;;19.50;45.60;;;;;;5062603;28;19924;-66
2023/01/15 05:55:09;;;;;;;;;;;19.50;45.50;;;;;;5061463;28;19920;-64
2023/01/15 05:57:35;;;;;;;;;;;19.50;45.50;;;;;;5062629;28;19931;-64
2023/01/15 06:00:02;;;;;;;;;;;19.50;45.50;;;;;;5058408;28;19921;-64
2023/01/15 06:02:29;;;;;;;;;;;19.50;45.50;;;;;;5059836;28;19921;-64
2023/01/15 06:04:56;;;;;;;;;;;19.50;45.50;;;;;;5059474;28;19997;-65
2023/01/15 06:07:24;;;;;;;;;;;19.50;45.50;;;;;;5060312;28;20416;-64
2023/01/15 06:09:51;;;;;;;;;;;19.50;45.50;;;;;;5054565;28;19927;-64
2023/01/15 06:12:17;;;;;;;;;;;19.50;45.50;;;;;;5061403;28;19924;-64
2023/01/15 06:14:44;;;;;;;;;;;19.50;45.50;;;;;;5069063;28;19968;-67
2023/01/15 06:17:13;;;;;;;;;;;19.50;45.50;;;;;;5081395;28;19965;-65
2023/01/15 06:19:40;;;;;;;;;;;19.50;45.40;;;;;;5059834;28;19920;-64
2023/01/15 06:22:07;;;;;;;;;;;19.50;45.50;;;;;;5079097;28;19943;-63
2023/01/15 06:24:35;;;;;;;;;;;19.50;45.50;;;;;;5060069;28;19949;-64
2023/01/15 06:27:02;;;;;;;;;;;19.50;45.50;;;;;;5063806;28;19926;-66
2023/01/15 06:29:29;;;;;;;;;;;19.50;45.40;;;;;;5061276;28;19920;-65
2023/01/15 06:31:56;;;;;;;;;;;19.50;45.40;;;;;;5083750;28;19928;-64
2023/01/15 06:34:23;;;;;;;;;;;19.50;45.40;;;;;;5067020;28;19920;-64
2023/01/15 06:36:50;;;;;;;;;;;19.50;45.40;;;;;;5064852;28;19955;-64
2023/01/15 06:39:16;;;;;;;;;;;19.50;45.40;;;;;;5060468;28;19924;-64
2023/01/15 06:47:23;;;;;;;;;;;19.50;45.40;;;;;;5062065;28;19951;-64
2023/01/15 06:49:50;;;;;;;;;;;19.50;45.40;;;;;;5058934;28;19927;-64
2023/01/15 06:52:17;;;;;;;;;;;19.50;45.40;;;;;;5081656;28;20353;-63
2023/01/15 06:54:43;;;;;;;;;;;19.50;45.40;;;;;;5062547;28;20370;-65
2023/01/15 06:57:12;;;;;;;;;;;19.40;45.30;;;;;;5065072;28;19970;-64
2023/01/15 06:59:39;;;;;;;;;;;19.50;45.30;;;;;;5063912;28;20047;-63
2023/01/15 07:02:05;;;;;;;;;;;19.40;45.30;;;;;;5063557;28;19937;-65
2023/01/15 07:04:32;;;;;;;;;;;19.50;45.30;;;;;;5066014;28;20011;-64
2023/01/15 07:06:59;;;;;;;;;;;19.50;45.30;;;;;;5065132;28;20023;-64
2023/01/15 07:09:26;;;;;;;;;;;19.50;45.30;;;;;;5078617;28;20394;-64
2023/01/15 07:11:52;;;;;;;;;;;19.40;45.20;;;;;;5061913;28;19983;-64
2023/01/15 07:14:21;;;;;;;;;;;19.40;45.30;;;;;;5056797;28;19920;-67
2023/01/15 07:16:48;;;;;;;;;;;19.40;45.30;;;;;;5064613;28;20410;-65
2023/01/15 07:19:15;;;;;;;;;;;19.40;45.30;;;;;;5063865;28;19920;-64
2023/01/15 07:21:42;;;;;;;;;;;19.40;45.20;;;;;;5082883;28;19924;-65
2023/01/15 07:24:09;;;;;;;;;;;19.40;45.20;;;;;;5063440;28;20346;-65
2023/01/15 07:26:36;;;;;;;;;;;19.50;45.30;;;;;;5078345;28;19959;-65
2023/01/15 07:29:03;;;;;;;;;;;19.50;45.30;;;;;;5058295;28;19990;-62
2023/01/15 07:31:31;;;;;;;;;;;19.50;45.20;;;;;;5057936;28;19934;-63
2023/01/15 07:33:57;;;;;;;;;;;19.40;45.20;;;;;;5063587;28;19981;-65
2023/01/15 07:36:24;;;;;;;;;;;19.50;45.20;;;;;;5061801;28;19921;-65
2023/01/15 07:38:51;;;;;;;;;;;19.40;45.20;;;;;;5062466;28;19970;-64
2023/01/15 07:49:47;;;;;;;;;;;19.40;45.20;;;;;;5060139;28;19927;-64
2023/01/15 07:52:14;;;;;;;;;;;19.40;45.20;;;;;;5060083;28;19920;-66
2023/01/15 07:54:40;;;;;;;;;;;19.40;45.20;;;;;;5064218;28;20325;-64
2023/01/15 07:57:07;;;;;;;;;;;19.40;45.20;;;;;;5064998;28;19936;-63
2023/01/15 07:59:34;;;;;;;;;;;19.40;45.20;;;;;;5061038;28;19956;-66
2023/01/15 08:02:02;;;;;;;;;;;19.40;45.10;;;;;;5074511;28;19932;-64
2023/01/15 08:04:29;;;;;;;;;;;19.50;45.20;;;;;;5060034;28;19953;-64
2023/01/15 08:06:56;;;;;;;;;;;19.40;45.10;;;;;;5055136;28;19921;-65
2023/01/15 08:09:24;;;;;;;;;;;19.40;45.20;;;;;;5056366;28;19924;-64
2023/01/15 08:17:21;;;;;;;;;;;19.40;45.20;;;;;;5060616;28;20018;-66
2023/01/15 08:19:47;;;;;;;;;;;19.40;45.20;;;;;;5057403;28;19932;-64
2023/01/15 08:22:15;;;;;;;;;;;19.40;45.10;;;;;;5060341;28;19920;-63
2023/01/15 08:24:41;;;;;;;;;;;19.40;45.20;;;;;;5057160;28;19924;-65
2023/01/15 08:27:08;;;;;;;;;;;19.40;45.20;;;;;;5075552;28;19932;-64
2023/01/15 08:29:35;;;;;;;;;;;19.40;45.20;;;;;;5055242;28;19955;-63
2023/01/15 08:32:01;;;;;;;;;;;19.40;45.10;;;;;;5059801;28;19966;-66
2023/01/15 08:34:29;;;;;;;;;;;19.40;45.10;;;;;;5054268;28;19954;-64
2023/01/15 08:36:58;;;;;;;;;;;19.40;45.10;;;;;;5058251;28;19924;-64
2023/01/15 08:39:26;;;;;;;;;;;19.40;45.10;;;;;;5051659;28;19976;-64
2023/01/15 08:41:52;;;;;;;;;;;19.40;45.10;;;;;;5061589;28;19920;-66
2023/01/15 08:44:20;;;;;;;;;;;19.40;45.10;;;;;;5080470;28;19921;-64
2023/01/15 08:46:47;;;;;;;;;;;19.40;45.10;;;;;;5059450;28;20026;-64
2023/01/15 08:49:14;;;;;;;;;;;19.40;45.10;;;;;;5050594;28;19921;-65
2023/01/15 08:51:43;;;;;;;;;;;19.40;45.10;;;;;;5057847;28;19928;-65
2023/01/15 08:54:10;;;;;;;;;;;19.40;45.10;;;;;;5055253;28;19948;-65
2023/01/15 08:56:37;;;;;;;;;;;19.40;45.10;;;;;;5057081;28;19932;-64
2023/01/15 08:59:04;;;;;;;;;;;19.40;45.10;;;;;;5052442;28;19921;-63
2023/01/15 09:01:31;;;;;;;;;;;19.40;45.10;;;;;;5070650;28;19925;-64
2023/01/15 09:03:58;;;;;;;;;;;19.40;45.10;;;;;;5056670;28;19920;-64
2023/01/15 09:06:24;;;;;;;;;;;19.40;45.10;;;;;;5056847;28;19943;-65
2023/01/15 09:08:53;;;;;;;;;;;19.50;45.10;;;;;;5054145;28;19942;-65
2023/01/15 09:11:19;;;;;;;;;;;19.40;45.10;;;;;;5053964;28;19928;-64
2023/01/15 09:13:47;;;;;;;;;;;19.40;45.10;;;;;;5072845;28;19924;-64
2023/01/15 09:16:16;;;;;;;;;;;19.40;45.00;;;;;;5052688;28;20301;-64
2023/01/15 09:18:42;;;;;;;;;;;19.40;45.60;;;;;;5052195;28;19989;-66
2023/01/15 09:21:09;;;;;;;;;;;19.40;45.00;;;;;;5059535;28;20336;-64
2023/01/15 09:23:36;;;;;;;;;;;19.40;45.10;;;;;;5056096;28;19920;-64
2023/01/15 09:26:05;;;;;;;;;;;19.40;45.00;;;;;;5059805;28;19969;-63
2023/01/15 09:28:32;;;;;;;;;;;19.40;45.00;;;;;;5059510;28;19920;-63
2023/01/15 09:30:58;;;;;;;;;;;19.40;45.00;;;;;;5056943;28;19925;-63
2023/01/15 09:33:25;;;;;;;;;;;19.40;45.00;;;;;;5057122;28;19982;-65
2023/01/15 09:35:52;;;;;;;;;;;19.40;45.10;;;;;;5057670;28;19920;-64
2023/01/15 09:38:19;;;;;;;;;;;19.40;45.10;;;;;;5059474;28;19973;-66
2023/01/15 09:40:47;;;;;;;;;;;19.40;45.00;;;;;;5046491;28;20266;-64
2023/01/15 09:43:18;;;;;;;;;;;19.40;45.00;;;;;;5051569;28;19921;-64
2023/01/15 09:45:45;;;;;;;;;;;19.40;45.00;;;;;;5053962;28;19927;-65
2023/01/15 09:48:20;;;;;;;;;;;19.40;45.00;;;;;;5069416;28;19920;-64
2023/01/15 09:50:59;;;;;;;;;;;19.40;45.10;;;;;;5069185;28;20342;-65
2023/01/15 09:53:31;;;;;;;;;;;19.40;45.00;;;;;;5061620;28;19928;-64
2023/01/15 09:55:57;;;;;;;;;;;19.50;45.10;;;;;;5075376;28;19932;-65
2023/01/15 09:58:27;;;;;;;;;;;19.40;45.10;;;;;;5050457;28;19927;-67
2023/01/15 10:00:53;;;;;;;;;;;19.50;45.70;;;;;;5058709;28;20265;-64
2023/01/15 10:03:23;;;;;;;;;;;19.50;45.10;;;;;;5059187;28;20370;-65
2023/01/15 10:05:52;;;;;;;;;;;19.40;45.10;;;;;;5051964;28;19921;-64
2023/01/15 10:08:20;;;;;;;;;;;19.50;45.10;;;;;;5074649;28;19921;-63
2023/01/15 10:10:47;;;;;;;;;;;19.50;45.20;;;;;;5059288;28;19966;-62
2023/01/15 10:13:17;;;;;;;;;;;19.50;45.10;;;;;;5056816;28;19966;-63
2023/01/15 10:15:46;;;;;;;;;;;19.50;45.10;;;;;;5068188;28;19920;-65
2023/01/15 10:18:13;;;;;;;;;;;19.50;45.10;;;;;;5063826;28;19920;-67
2023/01/15 10:20:58;;;;;;;;;;;19.50;45.10;;;;;;5064968;28;19920;-65
2023/01/15 10:23:35;;;;;;;;;;;19.50;45.20;;;;;;5064263;28;19986;-64
2023/01/15 10:26:03;;;;;;;;;;;19.50;45.20;;;;;;5075145;28;19924;-64
2023/01/15 10:28:30;;;;;;;;;;;19.50;45.30;;;;;;5058752;28;19920;-64
2023/01/15 10:31:00;;;;;;;;;;;19.50;45.30;;;;;;5076644;28;19924;-64
2023/01/15 10:33:34;;;;;;;;;;;19.50;45.40;;;;;;5056591;28;19921;-64
2023/01/15 10:36:02;;;;;;;;;;;19.60;45.50;;;;;;5038493;28;19920;-63
2023/01/15 10:38:30;;;;;;;;;;;19.60;45.50;;;;;;5050268;28;19925;-63
2023/01/15 10:41:06;;;;;;;;;;;19.60;45.50;;;;;;5060304;28;19970;-63
2023/01/15 10:43:37;;;;;;;;;;;19.60;45.60;;;;;;5057157;28;19974;-64
2023/01/15 10:46:07;;;;;;;;;;;19.60;45.60;;;;;;5063495;28;20239;-64
2023/01/15 10:48:34;;;;;;;;;;;19.60;45.60;;;;;;5078045;28;19927;-63
2023/01/15 10:51:02;;;;;;;;;;;19.70;45.70;;;;;;5078668;28;19924;-63
2023/01/15 10:53:30;;;;;;;;;;;19.60;45.70;;;;;;5078390;28;19920;-63
2023/01/15 10:55:58;;;;;;;;;;;19.70;45.70;;;;;;5076865;28;19973;-63
2023/01/15 10:58:25;;;;;;;;;;;19.70;45.70;;;;;;5079025;28;19950;-64
2023/01/15 11:00:53;;;;;;;;;;;19.70;45.70;;;;;;5078333;28;20018;-63
2023/01/15 11:03:23;;;;;;;;;;;19.70;45.70;;;;;;5067801;28;19920;-63
2023/01/15 11:05:50;;;;;;;;;;;19.80;45.90;;;;;;5068019;28;19924;-64
2023/01/15 11:08:19;;;;;;;;;;;19.80;45.90;;;;;;5064744;28;19920;-64
2023/01/15 11:10:46;;;;;;;;;;;19.80;45.90;;;;;;5079380;28;19942;-64
2023/01/15 11:21:32;;;;;;;;;;;19.80;45.90;;;;;;5077768;28;20374;-65
2023/01/15 11:23:59;;;;;;;;;;;19.90;45.90;;;;;;5076231;28;19955;-65
2023/01/15 11:26:26;;;;;;;;;;;19.80;45.80;;;;;;5074592;28;20014;-65
2023/01/15 11:28:53;;;;;;;;;;;19.80;45.80;;;;;;5067899;28;20350;-65
2023/01/15 11:31:20;;;;;;;;;;;19.90;45.90;;;;;;5072254;28;19973;-65
2023/01/15 11:33:57;;;;;;;;;;;19.90;45.90;;;;;;5071321;28;19973;-65
2023/01/15 11:36:24;;;;;;;;;;;19.90;45.80;;;;;;5077651;28;19927;-65
2023/01/15 11:38:51;;;;;;;;;;;19.90;45.80;;;;;;5060596;28;19920;-64
2023/01/15 11:50:42;;;;;;;;;;;19.90;45.80;;;;;;5075533;28;20398;-64
2023/01/15 11:52:36;;;;;;;;;;;19.90;45.80;;;;;;5046665;28;19924;-65
2023/01/15 11:55:03;;;;;;;;;;;19.80;45.70;;;;;;5054878;28;19920;-65
2023/01/15 11:57:30;;;;;;;;;;;19.90;45.80;;;;;;5055503;28;20370;-65
2023/01/15 11:59:57;;;;;;;;;;;19.90;45.80;;;;;;5058002;28;19927;-65
2023/01/15 12:02:25;;;;;;;;;;;19.90;45.80;;;;;;5072936;28;19927;-65
2023/01/15 12:04:54;;;;;;;;;;;19.90;45.80;;;;;;5057074;28;19920;-65
2023/01/15 12:07:23;;;;;;;;;;;19.80;45.70;;;;;;5075087;28;19924;-65
2023/01/15 12:09:59;;;;;;;;;;;19.80;45.70;;;;;;5053164;28;19921;-65
2023/01/15 12:12:28;;;;;;;;;;;19.80;45.70;;;;;;5071479;28;20259;-65
2023/01/15 12:15:05;;;;;;;;;;;19.80;45.70;;;;;;5054301;28;19926;-66
2023/01/15 12:17:38;;;;;;;;;;;19.80;45.70;;;;;;5055293;28;19948;-66
2023/01/15 12:20:11;;;;;;;;;;;19.80;45.70;;;;;;5070626;28;19921;-66
2023/01/15 12:22:43;;;;;;;;;;;19.80;45.70;;;;;;5054122;28;19920;-66
2023/01/15 12:25:24;;;;;;;;;;;19.80;45.70;;;;;;5054752;28;19921;-66
2023/01/15 12:27:52;;;;;;;;;;;19.80;45.70;;;;;;5072333;28;20017;-65
2023/01/15 12:30:21;;;;;;;;;;;19.80;45.70;;;;;;5054713;28;19954;-65
2023/01/15 12:32:50;;;;;;;;;;;19.80;45.70;;;;;;5056489;28;19963;-65
2023/01/15 12:35:19;;;;;;;;;;;19.80;45.70;;;;;;5071311;28;19982;-67
2023/01/15 12:37:46;;;;;;;;;;;19.80;45.70;;;;;;5053569;28;19921;-65
2023/01/15 12:40:17;;;;;;;;;;;19.80;45.80;;;;;;5052725;28;19959;-60
2023/01/15 12:45:28;;;;;;;;;;;19.80;45.70;;;;;;5073196;28;19972;-61
2023/01/15 12:47:56;;;;;;;;;;;19.80;45.70;;;;;;5056270;28;19924;-61
2023/01/15 12:50:43;;;;;;;;;;;19.80;45.40;;;;;;5072203;28;19920;-61
2023/01/15 12:53:12;;;;;;;;;;;19.80;45.30;;;;;;5056156;28;19966;-61
2023/01/15 12:55:39;;;;;;;;;;;19.80;45.20;;;;;;5054734;28;20385;-62
2023/01/15 12:58:10;;;;;;;;;;;19.80;45.10;;;;;;5055959;28;19921;-61
2023/01/15 13:00:38;;;;;;;;;;;19.80;45.00;;;;;;5045628;28;19951;-61
2023/01/15 13:03:10;;;;;;;;;;;19.80;45.00;;;;;;5054063;28;19971;-61
2023/01/15 13:05:39;;;;;;;;;;;19.80;45.00;;;;;;5063918;28;19973;-61
2023/01/15 13:08:07;;;;;;;;;;;19.70;44.80;;;;;;5054299;28;19952;-61
2023/01/15 13:10:35;;;;;;;;;;;19.70;44.70;;;;;;5055960;28;19921;-61
2023/01/15 13:13:02;;;;;;;;;;;19.70;44.50;;;;;;5053853;28;19928;-61
2023/01/15 13:15:30;;;;;;;;;;;19.70;44.40;;;;;;5055928;28;19931;-61
2023/01/15 13:17:59;;;;;;;;;;;19.70;44.30;;;;;;5056365;28;19927;-61
2023/01/15 13:20:30;;;;;;;;;;;19.70;44.20;;;;;;5053679;28;19920;-61
2023/01/15 13:23:03;;;;;;;;;;;19.70;44.10;;;;;;5053556;28;19987;-61
2023/01/15 13:25:57;;;;;;;;;;;19.70;44.10;;;;;;5053343;28;19978;-61
2023/01/15 13:28:27;;;;;;;;;;;19.70;44.00;;;;;;5027493;28;19982;-62
2023/01/15 13:30:57;;;;;;;;;;;19.70;44.10;;;;;;5060107;28;20432;-61
2023/01/15 13:33:25;;;;;;;;;;;19.70;44.20;;;;;;5040395;28;20258;-61
2023/01/15 13:35:51;;;;;;;;;;;19.70;44.10;;;;;;5068648;28;19920;-61
2023/01/15 13:38:20;;;;;;;;;;;19.70;44.20;;;;;;5077843;28;19920;-61
2023/01/15 13:40:50;;;;;;;;;;;19.70;44.20;;;;;;5066083;28;19970;-61
2023/01/15 13:43:25;;;;;;;;;;;19.70;44.20;;;;;;5077857;28;20008;-62
2023/01/15 13:45:51;;;;;;;;;;;19.70;44.10;;;;;;5056214;28;19920;-60
2023/01/15 13:48:18;;;;;;;;;;;19.70;44.20;;;;;;5055463;28;20317;-61
2023/01/15 13:50:51;;;;;;;;;;;19.70;44.20;;;;;;5060534;28;20377;-60
2023/01/15 13:53:22;;;;;;;;;;;19.60;44.20;;;;;;5078496;28;19935;-60
2023/01/15 13:55:52;;;;;;;;;;;19.70;44.20;;;;;;5057787;28;19920;-60
2023/01/15 13:58:20;;;;;;;;;;;19.70;44.10;;;;;;5059084;28;20359;-60
2023/01/15 14:00:47;;;;;;;;;;;19.60;43.90;;;;;;5059038;28;19920;-60
2023/01/15 14:03:26;;;;;;;;;;;19.60;43.90;;;;;;5075321;28;19921;-60
2023/01/15 14:05:56;;;;;;;;;;;19.60;43.80;;;;;;5076563;28;20407;-60
2023/01/15 14:08:26;;;;;;;;;;;19.60;43.60;;;;;;5067131;28;20313;-60
2023/01/15 14:10:54;;;;;;;;;;;19.60;43.60;;;;;;5056389;28;19920;-60
2023/01/15 14:13:43;;;;;;;;;;;19.60;43.50;;;;;;5062952;28;19925;-65
2023/01/15 14:16:12;;;;;;;;;;;19.60;43.40;;;;;;5075997;28;19928;-60
2023/01/15 14:18:55;;;;;;;;;;;19.60;43.30;;;;;;5058611;28;19925;-60
2023/01/15 14:21:27;;;;;;;;;;;19.60;43.30;;;;;;5054709;28;19924;-61
2023/01/15 14:24:00;;;;;;;;;;;19.60;43.10;;;;;;5058993;28;19959;-60
2023/01/15 14:26:28;;;;;;;;;;;19.60;42.90;;;;;;5055998;28;20354;-61
2023/01/15 14:29:02;;;;;;;;;;;19.50;42.60;;;;;;5056582;28;19920;-60
2023/01/15 14:31:40;;;;;;;;;;;19.50;42.60;;;;;;5054867;28;20366;-61
2023/01/15 14:34:12;;;;;;;;;;;19.50;42.50;;;;;;5054465;28;19970;-60
2023/01/15 14:36:40;;;;;;;;;;;19.50;42.30;;;;;;5056921;28;19921;-60
2023/01/15 14:39:18;;;;;;;;;;;19.50;42.30;;;;;;5074286;28;19921;-60
2023/01/15 14:44:26;;;;;;;;;;;19.50;42.20;;;;;;5057176;28;19920;-60
2023/01/15 14:46:56;;;;;;;;;;;19.50;42.20;;;;;;5058382;28;19946;-60
2023/01/15 14:49:27;;;;;;;;;;;19.50;42.10;;;;;;5055815;28;19924;-60
2023/01/15 14:51:54;;;;;;;;;;;19.50;42.00;;;;;;5056744;28;19920;-61
2023/01/15 14:54:23;;;;;;;;;;;19.50;41.90;;;;;;5058151;28;20399;-61
2023/01/15 14:56:50;;;;;;;;;;;19.40;41.70;;;;;;5066466;28;19995;-60
2023/01/15 14:59:19;;;;;;;;;;;19.40;41.60;;;;;;5074358;28;19921;-60
2023/01/15 15:01:49;;;;;;;;;;;19.40;41.50;;;;;;5058178;28;19927;-60
2023/01/15 15:04:24;;;;;;;;;;;19.40;41.40;;;;;;5058551;28;19921;-61
2023/01/15 15:06:51;;;;;;;;;;;19.40;41.30;;;;;;5056090;28;19920;-61
2023/01/15 15:09:29;;;;;;;;;;;19.40;41.30;;;;;;5058605;28;19920;-61
2023/01/15 15:14:42;;;;;;;;;;;19.30;41.20;;;;;;5046591;28;19929;-61
2023/01/15 15:17:13;;;;;;;;;;;19.30;41.20;;;;;;5054124;28;19943;-61
2023/01/15 15:19:40;;;;;;;;;;;19.30;41.20;;;;;;5052930;28;19920;-61